createdAt,value
2019-04-05T00:00:08.720Z,94.54
2019-04-05T00:01:08.692Z,94.44
2019-04-05T00:02:08.685Z,94.13
2019-04-05T00:03:08.707Z,94.23
2019-04-05T00:04:08.668Z,94.54
2019-04-05T00:05:08.686Z,94.54
2019-04-05T00:06:08.645Z,94.54
2019-04-05T00:07:08.629Z,94.65
2019-04-05T00:08:08.612Z,95.17
2019-04-05T00:09:08.623Z,94.71
2019-04-05T00:10:08.596Z,95.37
2019-04-05T00:11:08.591Z,95.68
2019-04-05T00:12:08.570Z,95.68
2019-04-05T00:13:08.586Z,95.53
2019-04-05T00:14:08.568Z,95.68
2019-04-05T00:15:15.544Z,95.48
2019-04-05T00:16:09.529Z,95.27
2019-04-05T00:17:08.526Z,94.75
2019-04-05T00:18:08.502Z,94.85
2019-04-05T00:19:08.510Z,95.17
2019-04-05T00:20:08.485Z,94.75
2019-04-05T00:21:08.490Z,94.65
2019-04-05T00:22:08.476Z,94.96
2019-04-05T00:23:08.471Z,95.48
2019-04-05T00:24:08.462Z,95.57
2019-04-05T00:25:08.437Z,95.64
2019-04-05T00:26:08.424Z,95.64
2019-04-05T00:27:08.402Z,95.89
2019-04-05T00:28:08.395Z,95.57
2019-04-05T00:29:08.454Z,96.41
2019-04-05T00:30:08.377Z,96.56
2019-04-05T00:31:08.358Z,96.72
2019-04-05T00:32:08.356Z,96.51
2019-04-05T00:33:08.359Z,95.89
2019-04-05T00:34:08.354Z,95.68
2019-04-05T00:35:08.330Z,96.41
2019-04-05T00:36:08.299Z,96.26
2019-04-05T00:37:08.291Z,96.61
2019-04-05T00:38:08.313Z,96.61
2019-04-05T00:39:08.305Z,96.41
2019-04-05T00:40:08.255Z,96.20
2019-04-05T00:41:08.250Z,96.72
2019-04-05T00:42:08.242Z,96.41
2019-04-05T00:43:08.225Z,95.57
2019-04-05T00:44:08.234Z,95.99
2019-04-05T00:45:08.218Z,95.99
2019-04-05T00:46:08.192Z,96.09
2019-04-05T00:47:08.211Z,95.74
2019-04-05T00:48:08.164Z,95.37
2019-04-05T00:49:08.178Z,95.64
2019-04-05T00:50:08.149Z,95.64
2019-04-05T00:51:08.144Z,95.37
2019-04-05T00:52:08.125Z,95.68
2019-04-05T00:53:08.134Z,95.64
2019-04-05T00:54:08.127Z,96.47
2019-04-05T00:55:08.097Z,96.30
2019-04-05T00:56:08.087Z,96.30
2019-04-05T00:57:08.065Z,95.78
2019-04-05T00:58:08.063Z,95.78
2019-04-05T00:59:08.046Z,95.57
2019-04-05T01:00:08.090Z,95.78
2019-04-05T01:01:08.024Z,95.57
2019-04-05T01:02:08.020Z,96.67
2019-04-05T01:03:08.010Z,96.67
2019-04-05T01:04:07.985Z,95.48
2019-04-05T01:05:08.004Z,95.78
2019-04-05T01:06:07.969Z,95.57
2019-04-05T01:07:07.960Z,95.68
2019-04-05T01:08:07.939Z,95.27
2019-04-05T01:09:07.935Z,95.32
2019-04-05T01:10:07.943Z,95.48
2019-04-05T01:11:07.916Z,95.37
2019-04-05T01:12:07.897Z,95.06
2019-04-05T01:13:07.896Z,95.06
2019-04-05T01:14:07.904Z,94.65
2019-04-05T01:15:07.888Z,95.06
2019-04-05T01:16:07.864Z,95.17
2019-04-05T01:17:07.840Z,95.17
2019-04-05T01:18:07.829Z,95.27
2019-04-05T01:19:07.828Z,95.27
2019-04-05T01:20:07.823Z,95.43
2019-04-05T01:21:07.809Z,95.02
2019-04-05T01:22:07.804Z,94.71
2019-04-05T01:23:07.782Z,94.50
2019-04-05T01:24:07.775Z,94.65
2019-04-05T01:25:07.776Z,94.92
2019-04-05T01:26:07.743Z,94.85
2019-04-05T01:27:07.728Z,94.96
2019-04-05T01:28:07.731Z,95.17
2019-04-05T01:29:07.716Z,94.96
2019-04-05T01:30:07.702Z,95.06
2019-04-05T01:31:07.714Z,94.85
2019-04-05T01:32:07.677Z,94.85
2019-04-05T01:33:07.666Z,95.27
2019-04-05T01:34:07.663Z,95.17
2019-04-05T01:35:07.646Z,95.43
2019-04-05T01:36:07.649Z,95.64
2019-04-05T01:37:07.637Z,95.64
2019-04-05T01:38:07.604Z,96.51
2019-04-05T01:39:07.605Z,96.61
2019-04-05T01:40:07.585Z,95.89
2019-04-05T01:41:07.618Z,95.89
2019-04-05T01:42:07.574Z,95.32
2019-04-05T01:43:07.555Z,94.92
2019-04-05T01:44:07.549Z,94.96
2019-04-05T01:45:07.539Z,95.06
2019-04-05T01:46:07.541Z,94.75
2019-04-05T01:47:07.504Z,94.54
2019-04-05T01:48:07.497Z,94.65
2019-04-05T01:49:07.483Z,94.96
2019-04-05T01:50:07.498Z,94.65
2019-04-05T01:51:07.492Z,94.96
2019-04-05T01:52:07.451Z,95.48
2019-04-05T01:53:07.438Z,95.27
2019-04-05T01:54:07.431Z,95.27
2019-04-05T01:55:07.419Z,95.68
2019-04-05T01:56:07.435Z,95.27
2019-04-05T01:57:07.395Z,95.43
2019-04-05T01:58:07.402Z,94.75
2019-04-05T01:59:07.380Z,95.12
2019-04-05T02:00:07.371Z,94.54
2019-04-05T02:01:07.349Z,94.34
2019-04-05T02:02:07.363Z,94.13
2019-04-05T02:03:07.350Z,94.44
2019-04-05T02:04:07.330Z,94.60
2019-04-05T02:05:07.305Z,94.54
2019-04-05T02:06:07.297Z,94.44
2019-04-05T02:07:07.298Z,94.54
2019-04-05T02:08:07.278Z,94.40
2019-04-05T02:09:07.280Z,94.54
2019-04-05T02:10:07.247Z,94.34
2019-04-05T02:11:07.242Z,94.54
2019-04-05T02:12:07.248Z,94.44
2019-04-05T02:13:07.215Z,94.75
2019-04-05T02:14:07.203Z,94.44
2019-04-05T02:15:07.195Z,94.65
2019-04-05T02:16:07.185Z,94.23
2019-04-05T02:17:07.191Z,94.34
2019-04-05T02:18:07.162Z,94.75
2019-04-05T02:19:07.149Z,94.85
2019-04-05T02:20:07.169Z,95.06
2019-04-05T02:21:07.140Z,94.54
2019-04-05T02:22:07.143Z,94.90
2019-04-05T02:23:07.103Z,94.85
2019-04-05T02:24:07.122Z,94.75
2019-04-05T02:25:07.092Z,94.75
2019-04-05T02:26:07.077Z,94.54
2019-04-05T02:27:07.082Z,94.65
2019-04-05T02:28:07.082Z,94.65
2019-04-05T02:29:07.041Z,94.03
2019-04-05T02:30:07.045Z,94.54
2019-04-05T02:31:07.090Z,94.65
2019-04-05T02:32:07.013Z,94.90
2019-04-05T02:33:07.017Z,95.06
2019-04-05T02:34:07.026Z,95.00
2019-04-05T02:35:06.979Z,94.90
2019-04-05T02:36:06.978Z,95.00
2019-04-05T02:37:06.961Z,94.69
2019-04-05T02:38:06.975Z,94.48
2019-04-05T02:39:06.927Z,94.48
2019-04-05T02:40:06.924Z,94.38
2019-04-05T02:41:06.926Z,94.90
2019-04-05T02:42:06.901Z,95.10
2019-04-05T02:43:06.898Z,94.59
2019-04-05T02:44:06.880Z,94.59
2019-04-05T02:45:06.860Z,94.59
2019-04-05T02:46:22.178Z,94.38
2019-04-05T02:47:07.834Z,94.38
2019-04-05T02:48:06.840Z,94.28
2019-04-05T02:49:06.827Z,94.79
2019-04-05T02:50:06.810Z,94.90
2019-04-05T02:51:06.789Z,94.59
2019-04-05T02:52:06.788Z,94.59
2019-04-05T02:53:06.791Z,94.90
2019-04-05T02:54:06.758Z,95.00
2019-04-05T02:55:06.754Z,95.00
2019-04-05T02:56:06.738Z,95.00
2019-04-05T02:57:06.723Z,94.69
2019-04-05T02:58:06.773Z,94.59
2019-04-05T02:59:06.699Z,94.28
2019-04-05T03:00:06.704Z,95.00
2019-04-05T03:01:06.681Z,94.90
2019-04-05T03:02:06.679Z,95.10
2019-04-05T03:03:06.660Z,94.69
2019-04-05T03:04:06.670Z,94.69
2019-04-05T03:05:06.658Z,94.59
2019-04-05T03:06:06.629Z,94.59
2019-04-05T03:07:06.633Z,94.38
2019-04-05T03:08:06.617Z,94.90
2019-04-05T03:09:06.611Z,94.90
2019-04-05T03:10:06.585Z,94.38
2019-04-05T03:11:06.578Z,95.00
2019-04-05T03:12:06.557Z,95.00
2019-04-05T03:13:06.553Z,95.00
2019-04-05T03:14:06.644Z,94.63
2019-04-05T03:15:06.526Z,94.69
2019-04-05T03:16:06.521Z,95.10
2019-04-05T03:17:06.509Z,95.10
2019-04-05T03:18:06.511Z,95.10
2019-04-05T03:19:06.493Z,94.79
2019-04-05T03:20:06.486Z,95.04
2019-04-05T03:21:06.460Z,95.10
2019-04-05T03:22:06.445Z,94.90
2019-04-05T03:23:06.433Z,95.10
2019-04-05T03:24:06.448Z,95.10
2019-04-05T03:25:06.419Z,94.48
2019-04-05T03:26:06.415Z,95.10
2019-04-05T03:27:06.417Z,95.31
2019-04-05T03:28:06.377Z,95.31
2019-04-05T03:29:06.367Z,95.73
2019-04-05T03:30:06.379Z,96.03
2019-04-05T03:31:06.364Z,96.66
2019-04-05T03:32:06.343Z,96.55
2019-04-05T03:33:06.369Z,96.76
2019-04-05T03:34:06.342Z,96.55
2019-04-05T03:35:06.343Z,96.55
2019-04-05T03:36:06.285Z,96.24
2019-04-05T03:37:06.274Z,96.24
2019-04-05T03:38:06.264Z,96.45
2019-04-05T03:39:06.279Z,96.55
2019-04-05T03:40:06.264Z,96.03
2019-04-05T03:41:06.241Z,95.83
2019-04-05T03:42:06.223Z,95.67
2019-04-05T03:43:06.206Z,95.21
2019-04-05T03:44:06.204Z,95.00
2019-04-05T03:45:06.213Z,95.10
2019-04-05T03:46:06.181Z,94.69
2019-04-05T03:47:06.165Z,94.90
2019-04-05T03:48:06.168Z,95.00
2019-04-05T03:49:06.146Z,94.79
2019-04-05T03:50:06.153Z,94.69
2019-04-05T03:51:06.222Z,95.10
2019-04-05T03:52:06.109Z,95.21
2019-04-05T03:53:06.102Z,95.10
2019-04-05T03:54:06.100Z,95.10
2019-04-05T03:55:06.098Z,94.59
2019-04-05T03:56:06.087Z,94.18
2019-04-05T03:57:06.056Z,94.94
2019-04-05T03:58:06.052Z,94.90
2019-04-05T03:59:06.106Z,94.90
2019-04-05T04:00:06.091Z,95.21
2019-04-05T04:01:06.014Z,95.00
2019-04-05T04:02:06.017Z,95.31
2019-04-05T04:03:05.997Z,95.10
2019-04-05T04:04:05.997Z,95.00
2019-04-05T04:05:05.963Z,95.00
2019-04-05T04:06:05.989Z,95.00
2019-04-05T04:07:05.946Z,94.48
2019-04-05T04:08:05.929Z,95.00
2019-04-05T04:09:05.919Z,95.42
2019-04-05T04:10:05.922Z,95.31
2019-04-05T04:11:05.925Z,95.31
2019-04-05T04:12:05.889Z,95.73
2019-04-05T04:13:05.886Z,95.73
2019-04-05T04:14:05.873Z,95.31
2019-04-05T04:15:05.859Z,95.73
2019-04-05T04:16:05.868Z,95.31
2019-04-05T04:17:12.635Z,95.73
2019-04-05T04:18:06.815Z,95.56
2019-04-05T04:19:05.811Z,95.73
2019-04-05T04:20:05.796Z,95.31
2019-04-05T04:21:05.817Z,95.21
2019-04-05T04:22:05.783Z,95.52
2019-04-05T04:23:05.782Z,95.52
2019-04-05T04:24:05.756Z,95.62
2019-04-05T04:25:05.765Z,95.42
2019-04-05T04:26:05.746Z,95.52
2019-04-05T04:27:05.716Z,95.73
2019-04-05T04:28:05.729Z,95.73
2019-04-05T04:29:05.717Z,96.55
2019-04-05T04:30:05.698Z,96.34
2019-04-05T04:31:05.712Z,96.34
2019-04-05T04:32:05.674Z,96.45
2019-04-05T04:33:05.647Z,96.66
2019-04-05T04:34:05.659Z,96.24
2019-04-05T04:35:05.656Z,96.55
2019-04-05T04:36:05.643Z,96.34
2019-04-05T04:37:05.628Z,96.34
2019-04-05T04:38:05.593Z,96.34
2019-04-05T04:39:05.597Z,96.45
2019-04-05T04:40:05.587Z,96.34
2019-04-05T04:41:05.596Z,96.34
2019-04-05T04:42:05.558Z,96.45
2019-04-05T04:43:05.565Z,96.34
2019-04-05T04:44:05.540Z,96.34
2019-04-05T04:45:11.980Z,96.34
2019-04-05T04:46:06.564Z,96.34
2019-04-05T04:47:05.497Z,96.14
2019-04-05T04:48:05.496Z,96.34
2019-04-05T04:49:05.487Z,96.55
2019-04-05T04:50:05.474Z,96.34
2019-04-05T04:51:05.468Z,96.45
2019-04-05T04:52:05.468Z,96.66
2019-04-05T04:53:05.430Z,96.34
2019-04-05T04:54:05.449Z,96.55
2019-04-05T04:55:05.411Z,96.03
2019-04-05T04:56:05.404Z,96.24
2019-04-05T04:57:05.404Z,96.76
2019-04-05T04:58:05.405Z,96.55
2019-04-05T04:59:05.370Z,96.45
2019-04-05T05:00:05.370Z,96.66
2019-04-05T05:01:05.354Z,96.34
2019-04-05T05:02:05.354Z,96.86
2019-04-05T05:03:05.347Z,96.55
2019-04-05T05:04:08.181Z,96.97
2019-04-05T05:05:05.327Z,96.76
2019-04-05T05:06:05.305Z,96.76
2019-04-05T05:07:05.298Z,96.66
2019-04-05T05:08:05.278Z,96.86
2019-04-05T05:09:05.279Z,96.76
2019-04-05T05:10:05.274Z,96.55
2019-04-05T05:11:14.407Z,96.66
2019-04-05T05:12:06.264Z,96.76
2019-04-05T05:13:05.219Z,96.76
2019-04-05T05:14:05.220Z,96.66
2019-04-05T05:15:05.200Z,96.66
2019-04-05T05:16:05.179Z,96.86
2019-04-05T05:17:05.189Z,96.45
2019-04-05T05:18:05.173Z,96.34
2019-04-05T05:19:05.180Z,96.03
2019-04-05T05:20:05.137Z,96.24
2019-04-05T05:21:05.126Z,96.66
2019-04-05T05:22:05.141Z,96.76
2019-04-05T05:23:05.114Z,96.45
2019-04-05T05:24:05.118Z,96.55
2019-04-05T05:25:05.087Z,96.34
2019-04-05T05:26:05.070Z,96.45
2019-04-05T05:27:05.100Z,96.45
2019-04-05T05:28:05.061Z,96.30
2019-04-05T05:29:05.035Z,96.51
2019-04-05T05:30:05.023Z,96.09
2019-04-05T05:31:05.022Z,96.34
2019-04-05T05:32:05.001Z,96.41
2019-04-05T05:33:05.011Z,96.30
2019-04-05T05:34:04.981Z,96.45
2019-04-05T05:35:04.996Z,96.82
2019-04-05T05:36:04.979Z,96.51
2019-04-05T05:37:04.970Z,96.45
2019-04-05T05:38:04.970Z,96.51
2019-04-05T05:39:04.922Z,96.41
2019-04-05T05:40:04.929Z,96.30
2019-04-05T05:41:04.909Z,96.72
2019-04-05T05:42:04.888Z,96.61
2019-04-05T05:43:04.919Z,96.61
2019-04-05T05:44:04.867Z,96.30
2019-04-05T05:45:04.857Z,96.30
2019-04-05T05:46:04.844Z,96.30
2019-04-05T05:47:04.837Z,96.41
2019-04-05T05:48:04.870Z,96.30
2019-04-05T05:49:04.829Z,96.20
2019-04-05T05:50:04.799Z,95.99
2019-04-05T05:51:04.803Z,95.99
2019-04-05T05:52:04.784Z,95.78
2019-04-05T05:53:04.795Z,95.78
2019-04-05T05:54:04.782Z,95.68
2019-04-05T05:55:04.743Z,95.78
2019-04-05T05:56:04.769Z,95.27
2019-04-05T05:57:04.739Z,95.06
2019-04-05T05:58:04.711Z,94.96
2019-04-05T05:59:04.724Z,94.96
2019-04-05T06:00:04.695Z,94.92
2019-04-05T06:01:04.689Z,94.65
2019-04-05T06:02:07.117Z,94.44
2019-04-05T06:03:06.304Z,94.60
2019-04-05T06:04:04.671Z,94.54
2019-04-05T06:05:04.650Z,94.85
2019-04-05T06:06:04.993Z,94.92
2019-04-05T06:07:04.613Z,94.81
2019-04-05T06:08:04.606Z,95.06
2019-04-05T06:09:04.650Z,95.12
2019-04-05T06:10:04.592Z,95.27
2019-04-05T06:11:04.566Z,95.27
2019-04-05T06:12:04.573Z,95.48
2019-04-05T06:13:07.027Z,95.27
2019-04-05T06:14:04.564Z,95.27
2019-04-05T06:15:04.538Z,95.32
2019-04-05T06:16:04.534Z,95.74
2019-04-05T06:17:04.502Z,95.64
2019-04-05T06:18:05.217Z,95.74
2019-04-05T06:19:04.503Z,94.71
2019-04-05T06:20:04.506Z,94.81
2019-04-05T06:21:04.456Z,94.92
2019-04-05T06:22:04.484Z,94.50
2019-04-05T06:23:04.435Z,94.60
2019-04-05T06:24:05.362Z,94.81
2019-04-05T06:25:04.416Z,94.71
2019-04-05T06:26:04.397Z,94.81
2019-04-05T06:27:04.387Z,94.92
2019-04-05T06:28:04.382Z,95.02
2019-04-05T06:29:04.399Z,95.12
2019-04-05T06:30:04.353Z,94.81
2019-04-05T06:31:04.342Z,95.22
2019-04-05T06:32:04.334Z,94.81
2019-04-05T06:33:04.322Z,94.81
2019-04-05T06:34:04.338Z,94.50
2019-04-05T06:35:04.304Z,94.29
2019-04-05T06:36:04.306Z,94.81
2019-04-05T06:37:04.281Z,94.60
2019-04-05T06:38:04.278Z,95.02
2019-04-05T06:39:04.286Z,94.87
2019-04-05T06:40:04.249Z,94.71
2019-04-05T06:41:04.241Z,95.12
2019-04-05T06:42:04.228Z,94.92
2019-04-05T06:43:06.628Z,94.81
2019-04-05T06:44:04.219Z,95.43
2019-04-05T06:45:04.214Z,96.47
2019-04-05T06:46:04.316Z,96.47
2019-04-05T06:47:04.183Z,96.36
2019-04-05T06:48:18.072Z,95.39
2019-04-05T06:49:05.161Z,95.07
2019-04-05T06:50:04.174Z,94.81
2019-04-05T06:51:04.129Z,95.12
2019-04-05T06:52:04.114Z,95.28
2019-04-05T06:53:04.114Z,95.90
2019-04-05T06:54:04.102Z,95.70
2019-04-05T06:55:04.079Z,95.39
2019-04-05T06:56:04.105Z,94.67
2019-04-05T06:57:04.068Z,93.94
2019-04-05T06:58:04.064Z,93.22
2019-04-05T06:59:04.052Z,93.53
2019-04-05T07:00:04.024Z,93.84
2019-04-05T07:01:04.060Z,94.67
2019-04-05T07:02:04.012Z,94.56
2019-04-05T07:03:03.993Z,94.35
2019-04-05T07:04:03.981Z,94.56
2019-04-05T07:05:03.986Z,94.35
2019-04-05T07:06:03.983Z,94.46
2019-04-05T07:07:03.949Z,94.87
2019-04-05T07:08:03.946Z,94.77
2019-04-05T07:09:03.928Z,94.67
2019-04-05T07:10:03.946Z,95.03
2019-04-05T07:11:03.928Z,94.56
2019-04-05T07:12:03.898Z,94.77
2019-04-05T07:13:04.082Z,94.56
2019-04-05T07:14:03.878Z,94.77
2019-04-05T07:15:03.876Z,94.67
2019-04-05T07:16:03.909Z,94.93
2019-04-05T07:17:03.849Z,95.03
2019-04-05T07:18:03.848Z,94.72
2019-04-05T07:19:03.820Z,94.35
2019-04-05T07:20:03.806Z,95.14
2019-04-05T07:21:03.809Z,95.45
2019-04-05T07:22:03.819Z,95.24
2019-04-05T07:23:03.797Z,94.82
2019-04-05T07:24:03.765Z,94.21
2019-04-05T07:25:03.766Z,94.52
2019-04-05T07:26:03.798Z,94.52
2019-04-05T07:27:03.729Z,94.62
2019-04-05T07:28:03.743Z,94.31
2019-04-05T07:29:03.738Z,94.10
2019-04-05T07:30:03.732Z,94.21
2019-04-05T07:31:03.727Z,94.93
2019-04-05T07:32:03.676Z,94.93
2019-04-05T07:33:03.667Z,95.03
2019-04-05T07:34:03.669Z,94.72
2019-04-05T07:35:03.660Z,95.03
2019-04-05T07:36:03.741Z,94.82
2019-04-05T07:37:03.619Z,95.14
2019-04-05T07:38:03.616Z,94.72
2019-04-05T07:39:03.601Z,94.52
2019-04-05T07:40:03.611Z,94.42
2019-04-05T07:41:03.592Z,94.42
2019-04-05T07:42:03.586Z,94.21
2019-04-05T07:43:03.554Z,93.96
2019-04-05T07:44:03.548Z,94.82
2019-04-05T07:45:03.560Z,94.72
2019-04-05T07:46:03.533Z,94.62
2019-04-05T07:47:03.542Z,94.72
2019-04-05T07:48:03.500Z,94.62
2019-04-05T07:49:03.490Z,93.34
2019-04-05T07:50:03.492Z,93.34
2019-04-05T07:51:03.466Z,93.96
2019-04-05T07:52:03.481Z,93.24
2019-04-05T07:53:03.457Z,93.13
2019-04-05T07:54:03.445Z,93.03
2019-04-05T07:55:03.449Z,93.03
2019-04-05T07:56:03.436Z,93.13
2019-04-05T07:57:03.434Z,91.48
2019-04-05T07:58:03.410Z,91.89
2019-04-05T07:59:03.393Z,91.07
2019-04-05T08:00:03.384Z,91.89
2019-04-05T08:01:03.360Z,91.79
2019-04-05T08:02:03.387Z,91.38
2019-04-05T08:03:03.351Z,91.17
2019-04-05T08:04:03.330Z,91.79
2019-04-05T08:05:06.167Z,91.58
2019-04-05T08:06:03.336Z,91.38
2019-04-05T08:07:03.313Z,91.28
2019-04-05T08:08:03.286Z,91.48
2019-04-05T08:09:03.294Z,91.79
2019-04-05T08:10:03.365Z,91.79
2019-04-05T08:11:03.249Z,91.89
2019-04-05T08:12:03.270Z,91.89
2019-04-05T08:13:03.263Z,91.79
2019-04-05T08:14:03.243Z,92.21
2019-04-05T08:15:03.216Z,92.10
2019-04-05T08:16:03.211Z,91.28
2019-04-05T08:17:03.216Z,90.45
2019-04-05T08:18:03.195Z,90.14
2019-04-05T08:19:03.185Z,90.31
2019-04-05T08:20:03.150Z,91.54
2019-04-05T08:21:03.142Z,91.58
2019-04-05T08:22:03.129Z,91.24
2019-04-05T08:23:03.189Z,91.03
2019-04-05T08:24:03.117Z,90.51
2019-04-05T08:25:03.101Z,89.58
2019-04-05T08:26:03.093Z,89.07
2019-04-05T08:27:03.081Z,88.86
2019-04-05T08:28:03.097Z,88.96
2019-04-05T08:29:03.060Z,89.69
2019-04-05T08:30:03.046Z,90.41
2019-04-05T08:31:03.030Z,90.51
2019-04-05T08:32:13.934Z,90.41
2019-04-05T08:33:04.047Z,90.51
2019-04-05T08:34:03.045Z,90.41
2019-04-05T08:35:02.998Z,90.92
2019-04-05T08:36:02.986Z,90.41
2019-04-05T08:37:02.962Z,90.41
2019-04-05T08:38:02.953Z,90.41
2019-04-05T08:39:02.970Z,89.58
2019-04-05T08:40:02.928Z,89.79
2019-04-05T08:41:02.927Z,88.24
2019-04-05T08:42:02.918Z,88.04
2019-04-05T08:43:02.903Z,87.93
2019-04-05T08:44:02.944Z,88.45
2019-04-05T08:45:02.883Z,89.69
2019-04-05T08:46:02.891Z,90.06
2019-04-05T08:47:02.859Z,90.51
2019-04-05T08:48:02.857Z,90.41
2019-04-05T08:49:10.449Z,90.78
2019-04-05T08:50:03.837Z,90.16
2019-04-05T08:51:02.808Z,89.85
2019-04-05T08:52:02.804Z,89.85
2019-04-05T08:53:02.791Z,89.13
2019-04-05T08:54:02.830Z,89.03
2019-04-05T08:55:02.765Z,89.44
2019-04-05T08:56:02.765Z,89.85
2019-04-05T08:57:02.747Z,90.26
2019-04-05T08:58:02.731Z,90.57
2019-04-05T08:59:02.751Z,89.95
2019-04-05T09:00:02.708Z,89.65
2019-04-05T09:01:02.708Z,89.44
2019-04-05T09:02:02.696Z,89.85
2019-04-05T09:03:02.717Z,88.62
2019-04-05T09:04:02.686Z,87.59
2019-04-05T09:05:02.727Z,85.83
2019-04-05T09:06:02.668Z,87.59
2019-04-05T09:07:02.637Z,87.90
2019-04-05T09:08:02.634Z,88.20
2019-04-05T09:09:02.622Z,88.10
2019-04-05T09:10:02.680Z,88.62
2019-04-05T09:11:02.596Z,88.47
2019-04-05T09:12:02.590Z,88.72
2019-04-05T09:13:02.574Z,89.23
2019-04-05T09:14:02.567Z,89.13
2019-04-05T09:15:02.578Z,88.99
2019-04-05T09:16:02.550Z,89.54
2019-04-05T09:17:02.597Z,88.41
2019-04-05T09:18:02.517Z,89.34
2019-04-05T09:19:02.527Z,89.50
2019-04-05T09:20:02.517Z,88.78
2019-04-05T09:21:02.496Z,88.37
2019-04-05T09:22:02.482Z,87.75
2019-04-05T09:23:02.461Z,87.34
2019-04-05T09:24:02.460Z,87.96
2019-04-05T09:25:02.472Z,88.37
2019-04-05T09:26:02.443Z,88.78
2019-04-05T09:27:02.438Z,88.47
2019-04-05T09:28:02.424Z,88.26
2019-04-05T09:29:02.400Z,88.37
2019-04-05T09:30:02.484Z,86.93
2019-04-05T09:31:02.389Z,87.96
2019-04-05T09:32:02.380Z,87.85
2019-04-05T09:33:02.363Z,86.72
2019-04-05T09:34:02.351Z,87.65
2019-04-05T09:35:02.417Z,87.85
2019-04-05T09:36:02.357Z,88.57
2019-04-05T09:37:02.320Z,89.19
2019-04-05T09:38:02.340Z,88.57
2019-04-05T09:39:02.324Z,88.78
2019-04-05T09:40:02.293Z,88.26
2019-04-05T09:41:02.296Z,88.89
2019-04-05T09:42:02.252Z,88.89
2019-04-05T09:43:02.239Z,88.06
2019-04-05T09:44:02.246Z,88.12
2019-04-05T09:45:02.308Z,88.26
2019-04-05T09:46:02.256Z,88.37
2019-04-05T09:47:02.205Z,88.99
2019-04-05T09:48:02.197Z,88.33
2019-04-05T09:49:02.200Z,88.53
2019-04-05T09:50:02.199Z,87.60
2019-04-05T09:51:02.203Z,87.92
2019-04-05T09:52:02.148Z,87.81
2019-04-05T09:53:02.139Z,87.81
2019-04-05T09:54:02.129Z,88.53
2019-04-05T09:55:02.132Z,89.05
2019-04-05T09:56:02.121Z,89.56
2019-04-05T09:57:02.114Z,89.25
2019-04-05T09:58:02.079Z,89.36
2019-04-05T09:59:02.090Z,88.02
2019-04-05T10:00:02.071Z,88.53
2019-04-05T10:01:02.073Z,87.81
2019-04-05T10:02:02.046Z,87.60
2019-04-05T10:03:02.027Z,88.18
2019-04-05T10:04:02.019Z,88.49
2019-04-05T10:05:02.009Z,89.22
2019-04-05T10:06:02.022Z,89.05
2019-04-05T10:07:01.996Z,87.71
2019-04-05T10:08:01.970Z,86.85
2019-04-05T10:09:01.980Z,86.43
2019-04-05T10:10:01.943Z,85.65
2019-04-05T10:11:01.943Z,86.95
2019-04-05T10:12:01.980Z,86.43
2019-04-05T10:13:01.918Z,87.46
2019-04-05T10:14:01.905Z,87.40
2019-04-05T10:15:01.894Z,87.57
2019-04-05T10:16:01.889Z,87.57
2019-04-05T10:17:01.902Z,85.61
2019-04-05T10:18:01.897Z,87.15
2019-04-05T10:19:01.850Z,87.67
2019-04-05T10:20:01.873Z,87.46
2019-04-05T10:21:01.868Z,86.54
2019-04-05T10:22:01.838Z,86.13
2019-04-05T10:23:01.851Z,87.77
2019-04-05T10:24:01.800Z,88.29
2019-04-05T10:25:01.784Z,88.29
2019-04-05T10:26:01.777Z,87.57
2019-04-05T10:27:01.800Z,86.54
2019-04-05T10:28:01.749Z,87.67
2019-04-05T10:29:01.780Z,87.77
2019-04-05T10:30:01.750Z,88.29
2019-04-05T10:31:01.782Z,87.46
2019-04-05T10:32:01.702Z,86.50
2019-04-05T10:33:01.706Z,87.63
2019-04-05T10:34:01.716Z,88.04
2019-04-05T10:35:01.690Z,87.94
2019-04-05T10:36:01.669Z,87.84
2019-04-05T10:37:01.653Z,87.01
2019-04-05T10:38:01.679Z,86.40
2019-04-05T10:39:01.634Z,87.15
2019-04-05T10:40:01.628Z,86.60
2019-04-05T10:41:01.601Z,87.42
2019-04-05T10:42:03.695Z,88.56
2019-04-05T10:43:01.631Z,87.52
2019-04-05T10:44:01.592Z,86.08
2019-04-05T10:45:01.567Z,85.68
2019-04-05T10:46:01.556Z,85.98
2019-04-05T10:47:01.535Z,85.36
2019-04-05T10:48:01.582Z,85.47
2019-04-05T10:49:01.519Z,85.68
2019-04-05T10:50:03.463Z,85.78
2019-04-05T10:51:01.502Z,85.78
2019-04-05T10:52:01.504Z,85.78
2019-04-05T10:53:01.584Z,85.57
2019-04-05T10:54:01.486Z,86.60
2019-04-05T10:55:01.451Z,86.56
2019-04-05T10:56:01.448Z,87.52
2019-04-05T10:57:01.432Z,86.25
2019-04-05T10:58:01.444Z,86.35
2019-04-05T10:59:01.441Z,85.43
2019-04-05T11:00:01.405Z,86.05
2019-04-05T11:01:01.389Z,86.15
2019-04-05T11:02:01.373Z,85.74
2019-04-05T11:03:01.394Z,86.56
2019-04-05T11:04:01.362Z,85.53
2019-04-05T11:05:01.373Z,85.43
2019-04-05T11:06:01.328Z,85.63
2019-04-05T11:07:01.324Z,85.63
2019-04-05T11:08:01.324Z,86.05
2019-04-05T11:09:01.372Z,85.94
2019-04-05T11:10:01.312Z,85.70
2019-04-05T11:11:01.279Z,85.74
2019-04-05T11:12:01.261Z,85.63
2019-04-05T11:13:01.268Z,86.00
2019-04-05T11:14:13.152Z,85.80
2019-04-05T11:15:02.229Z,86.15
2019-04-05T11:16:03.859Z,85.80
2019-04-05T11:17:04.523Z,84.98
2019-04-05T11:18:04.343Z,85.84
2019-04-05T11:19:02.294Z,84.88
2019-04-05T11:20:01.175Z,85.18
2019-04-05T11:21:01.164Z,85.39
2019-04-05T11:22:01.155Z,85.12
2019-04-05T11:23:01.141Z,85.08
2019-04-05T11:24:01.147Z,85.28
2019-04-05T11:25:01.127Z,84.77
2019-04-05T11:26:01.119Z,84.91
2019-04-05T11:27:01.112Z,84.81
2019-04-05T11:28:01.089Z,84.05
2019-04-05T11:29:01.079Z,85.90
2019-04-05T11:30:01.077Z,85.18
2019-04-05T11:31:01.081Z,85.28
2019-04-05T11:32:01.038Z,85.70
2019-04-05T11:33:01.038Z,85.18
2019-04-05T11:34:01.047Z,84.77
2019-04-05T11:35:01.010Z,85.60
2019-04-05T11:36:01.088Z,85.60
2019-04-05T11:37:02.799Z,85.39
2019-04-05T11:38:00.981Z,85.90
2019-04-05T11:39:00.973Z,85.49
2019-04-05T11:40:00.981Z,85.49
2019-04-05T11:41:00.968Z,85.22
2019-04-05T11:42:01.001Z,85.39
2019-04-05T11:43:00.942Z,85.70
2019-04-05T11:44:01.437Z,86.21
2019-04-05T11:45:00.916Z,85.80
2019-04-05T11:46:00.895Z,85.70
2019-04-05T11:47:00.876Z,86.32
2019-04-05T11:48:00.876Z,85.70
2019-04-05T11:49:01.366Z,85.70
2019-04-05T11:50:00.888Z,86.00
2019-04-05T11:51:00.829Z,85.70
2019-04-05T11:52:00.857Z,85.80
2019-04-05T11:53:00.829Z,85.66
2019-04-05T11:54:00.798Z,86.32
2019-04-05T11:55:00.842Z,84.88
2019-04-05T11:56:13.458Z,85.28
2019-04-05T11:57:01.764Z,84.63
2019-04-05T11:58:00.753Z,84.63
2019-04-05T11:59:00.742Z,83.81
2019-04-05T12:00:00.751Z,85.04
2019-04-05T12:01:00.749Z,85.35
2019-04-05T12:02:00.732Z,84.53
2019-04-05T12:03:00.698Z,85.25
2019-04-05T12:04:00.686Z,85.35
2019-04-05T12:05:00.699Z,84.94
2019-04-05T12:06:00.664Z,85.35
2019-04-05T12:07:00.657Z,85.46
2019-04-05T12:08:01.992Z,85.35
2019-04-05T12:09:01.382Z,83.81
2019-04-05T12:10:00.647Z,83.19
2019-04-05T12:11:00.636Z,83.70
2019-04-05T12:12:00.645Z,84.01
2019-04-05T12:13:00.595Z,85.25
2019-04-05T12:14:00.626Z,85.04
2019-04-05T12:15:00.581Z,85.04
2019-04-05T12:16:00.554Z,84.94
2019-04-05T12:17:00.613Z,84.08
2019-04-05T12:18:02.426Z,84.32
2019-04-05T12:19:00.527Z,84.42
2019-04-05T12:20:02.670Z,83.70
2019-04-05T12:21:02.741Z,84.12
2019-04-05T12:22:00.509Z,84.22
2019-04-05T12:23:00.481Z,83.81
2019-04-05T12:24:02.548Z,83.70
2019-04-05T12:25:02.683Z,83.70
2019-04-05T12:26:03.818Z,84.53
2019-04-05T12:27:00.438Z,84.01
2019-04-05T12:28:07.595Z,84.12
2019-04-05T12:29:01.424Z,83.81
2019-04-05T12:30:00.441Z,85.25
2019-04-05T12:31:00.415Z,85.04
2019-04-05T12:32:00.390Z,84.84
2019-04-05T12:33:13.030Z,83.29
2019-04-05T12:34:01.381Z,85.04
2019-04-05T12:35:00.350Z,85.35
2019-04-05T12:36:00.364Z,83.61
2019-04-05T12:37:00.341Z,84.12
2019-04-05T12:38:00.347Z,84.84
2019-04-05T12:39:01.572Z,85.25
2019-04-05T12:40:00.308Z,85.66
2019-04-05T12:41:00.295Z,85.76
2019-04-05T12:42:00.278Z,86.17
2019-04-05T12:43:00.300Z,83.40
2019-04-05T12:44:00.256Z,85.04
2019-04-05T12:45:00.233Z,84.53
2019-04-05T12:46:00.239Z,84.84
2019-04-05T12:47:00.245Z,85.04
2019-04-05T12:48:00.204Z,83.91
2019-04-05T12:49:00.192Z,85.25
2019-04-05T12:50:00.190Z,84.01
2019-04-05T12:51:01.341Z,84.84
2019-04-05T12:52:00.171Z,84.74